首页
METAR-TAF:

METAR-TAF

机场 :

Altenburg, 德国

纬度: 50-58N, 经度: 012-30E, 海拔: 195米

当前天气观测

该预报发布于36分钟前的04:50 UTC
风速13节,风向西南
温度 9°C
湿度 81%
气压 1017 hPa
能见度10公里或以上

METAR: EDAC 230450Z AUTO 23013KT 9999 // BKN028/// OVC036/// 09/06 Q1017

时间: 06:26 (05:26 UTC)

预报

该预报发布于15小时和26分钟前的14:00 UTC
预报有效从22日的 15点(UTC)到 22日的 24点(UTC)
风速20节,风向西南,有时为35节阵风
能见度10公里或以上
1500米以下无云,无积雨云
短暂存在
从 22日的 15点(UTC)到 22日的 18点(UTC)
风速25节,风向西转西南,有时为40节阵风
成为
从 22日的 18点(UTC)到 22日的 22点(UTC)
风速15节,风向西转西南,有时为25节阵风

TAF: EDAC 221400Z 2215/2224 23020G35KT CAVOK TEMPO 2215/2218 24025G40KT BECMG 2218/2222 24015G25KT

超过4000个机场的气象观测和天气预报(METAR&TAF报告)。

可查询的气象台以黄色和红色小点在地图上表示。

将鼠标移到小点上方,可查看气象台名称。

然后点击查看天气观测和预报。

如需切换地图:点击带黑十字的绿色按钮放大地图;点击带横线的绿色按钮缩小地图;或者点击绿色箭头查看邻近地区的地图。


METAR-TAF: